createdAt,value
2022-09-11T00:00:43.689Z,2.10
2022-09-11T00:06:07.649Z,2.10
2022-09-11T00:11:17.962Z,2.00
2022-09-11T00:16:29.600Z,2.30
2022-09-11T00:21:39.420Z,1.70
2022-09-11T00:26:43.036Z,2.00
2022-09-11T00:31:46.612Z,2.00
2022-09-11T00:36:50.588Z,1.80
2022-09-11T00:41:54.110Z,2.00
2022-09-11T00:47:01.222Z,1.70
2022-09-11T00:52:32.207Z,1.70
2022-09-11T00:57:42.502Z,1.80
2022-09-11T01:02:49.195Z,1.90
2022-09-11T01:07:55.082Z,1.90
2022-09-11T01:13:11.109Z,2.00
2022-09-11T01:18:30.869Z,2.00
2022-09-11T01:23:55.402Z,1.80
2022-09-11T01:29:06.211Z,2.00
2022-09-11T01:34:23.232Z,1.90
2022-09-11T01:39:33.893Z,2.00
2022-09-11T01:50:05.311Z,2.00
2022-09-11T01:55:19.605Z,1.90
2022-09-11T02:00:27.819Z,1.90
2022-09-11T02:05:44.569Z,1.70
2022-09-11T02:11:03.723Z,2.30
2022-09-11T02:16:23.931Z,2.20
2022-09-11T02:21:28.333Z,1.70
2022-09-11T02:26:39.195Z,2.10
2022-09-11T02:31:43.969Z,1.80
2022-09-11T02:37:20.648Z,2.10
2022-09-11T02:42:48.757Z,1.90
2022-09-11T02:48:08.521Z,1.60
2022-09-11T02:53:38.303Z,1.90
2022-09-11T02:58:50.866Z,2.20
2022-09-11T03:03:54.801Z,1.70
2022-09-11T03:08:59.379Z,1.70
2022-09-11T03:14:08.039Z,1.60
2022-09-11T03:19:14.779Z,1.60
2022-09-11T03:24:18.399Z,1.40
2022-09-11T03:29:22.331Z,1.90
2022-09-11T03:34:26.977Z,1.50
2022-09-11T03:39:30.699Z,1.30
2022-09-11T03:44:35.856Z,1.70
2022-09-11T03:49:39.684Z,1.40
2022-09-11T03:54:43.411Z,1.50
2022-09-11T03:59:47.238Z,1.40
2022-09-11T04:04:50.861Z,1.30
2022-09-11T04:09:55.921Z,1.30
2022-09-11T04:14:59.546Z,1.60
2022-09-11T04:20:05.325Z,1.60
2022-09-11T04:25:09.549Z,1.30
2022-09-11T04:30:14.198Z,1.50
2022-09-11T04:35:17.818Z,1.30
2022-09-11T04:40:26.974Z,1.50
2022-09-11T04:45:33.739Z,1.60
2022-09-11T04:50:38.209Z,1.50
2022-09-11T04:55:50.838Z,1.50
2022-09-11T05:00:55.390Z,1.40
2022-09-11T05:05:58.883Z,1.40
2022-09-11T05:11:05.823Z,1.70
2022-09-11T05:16:12.435Z,1.40
2022-09-11T05:21:18.485Z,1.80
2022-09-11T05:26:31.108Z,1.50
2022-09-11T05:31:41.647Z,1.40
2022-09-11T05:36:46.220Z,1.40
2022-09-11T05:41:54.157Z,1.40
2022-09-11T05:46:59.198Z,1.50
2022-09-11T05:52:07.907Z,1.50
2022-09-11T05:57:13.403Z,1.30
2022-09-11T06:02:17.990Z,1.40
2022-09-11T06:07:27.098Z,1.40
2022-09-11T06:12:31.028Z,1.50
2022-09-11T06:17:37.888Z,1.40
2022-09-11T06:22:42.881Z,1.40
2022-09-11T06:27:46.501Z,1.50
2022-09-11T06:32:52.274Z,1.70
2022-09-11T06:37:56.716Z,1.40
2022-09-11T06:43:06.375Z,1.30
2022-09-11T06:48:10.008Z,1.40
2022-09-11T06:53:15.566Z,1.30
2022-09-11T06:58:28.418Z,1.60
2022-09-11T07:03:33.998Z,1.50
2022-09-11T07:08:39.638Z,1.40
2022-09-11T07:13:43.714Z,1.60
2022-09-11T07:18:49.360Z,1.80
2022-09-11T07:23:59.338Z,1.70
2022-09-11T07:29:15.198Z,1.50
2022-09-11T07:34:20.679Z,1.80
2022-09-11T07:39:29.415Z,1.60
2022-09-11T07:44:37.438Z,2.00
2022-09-11T07:49:41.063Z,1.80
2022-09-11T07:54:45.299Z,1.80
2022-09-11T08:00:01.618Z,2.30
2022-09-11T08:05:25.564Z,2.20
2022-09-11T08:10:30.047Z,1.80
2022-09-11T08:15:38.286Z,2.40
2022-09-11T08:20:48.274Z,2.20
2022-09-11T08:26:08.945Z,2.10
2022-09-11T08:31:29.054Z,2.40
2022-09-11T08:36:38.831Z,2.20
2022-09-11T08:41:58.353Z,2.30
2022-09-11T08:47:10.107Z,1.90
2022-09-11T08:52:19.929Z,2.50
2022-09-11T08:57:29.123Z,2.40
2022-09-11T09:03:17.785Z,1.90
2022-09-11T09:08:59.160Z,2.20
2022-09-11T09:14:28.724Z,2.20
2022-09-11T09:19:48.371Z,2.40
2022-09-11T09:25:04.791Z,2.20
2022-09-11T09:30:34.309Z,2.60
2022-09-11T09:35:42.578Z,2.50
2022-09-11T09:40:55.725Z,2.90
2022-09-11T09:46:11.202Z,2.90
2022-09-11T09:51:15.692Z,3.20
2022-09-11T09:56:29.491Z,3.10
2022-09-11T10:01:51.508Z,3.00
2022-09-11T10:07:07.731Z,2.80
2022-09-11T10:12:46.018Z,2.80
2022-09-11T10:17:51.162Z,3.10
2022-09-11T10:23:30.471Z,2.90
2022-09-11T10:28:37.199Z,2.80
2022-09-11T10:33:58.124Z,3.20
2022-09-11T10:39:03.076Z,3.60
2022-09-11T10:44:18.192Z,3.90
2022-09-11T10:49:23.728Z,3.60
2022-09-11T10:54:47.303Z,3.80
2022-09-11T11:00:14.197Z,4.00
2022-09-11T11:05:25.149Z,4.00
2022-09-11T11:10:43.099Z,4.80
2022-09-11T11:16:14.497Z,4.10
2022-09-11T11:21:29.745Z,3.70
2022-09-11T11:26:50.979Z,4.10
2022-09-11T11:32:25.528Z,3.60
2022-09-11T11:37:41.418Z,3.30
2022-09-11T11:42:56.056Z,3.70
2022-09-11T11:48:56.062Z,3.40
2022-09-11T11:54:11.140Z,3.00
2022-09-11T11:59:21.319Z,3.50
2022-09-11T12:04:49.421Z,3.50
2022-09-11T12:10:04.321Z,3.80
2022-09-11T12:15:25.126Z,3.40
2022-09-11T12:20:52.633Z,3.10
2022-09-11T12:26:11.594Z,3.40
2022-09-11T12:31:18.327Z,3.30
2022-09-11T12:36:34.077Z,3.00
2022-09-11T12:41:38.722Z,3.30
2022-09-11T12:46:48.128Z,3.40
2022-09-11T12:51:55.490Z,3.30
2022-09-11T12:57:19.558Z,3.40
2022-09-11T13:02:39.294Z,3.20
2022-09-11T13:08:06.217Z,3.30
2022-09-11T13:13:54.596Z,3.50
2022-09-11T13:19:28.661Z,3.60
2022-09-11T13:24:37.124Z,3.60
2022-09-11T13:29:55.041Z,3.30
2022-09-11T13:35:24.647Z,3.20
2022-09-11T13:40:44.659Z,2.90
2022-09-11T13:51:30.183Z,3.80
2022-09-11T13:56:51.718Z,3.50
2022-09-11T14:02:01.616Z,3.20
2022-09-11T14:07:27.530Z,3.40
2022-09-11T14:12:46.066Z,3.20
2022-09-11T14:17:50.907Z,2.90
2022-09-11T14:23:09.680Z,2.90
2022-09-11T14:29:08.867Z,3.10
2022-09-11T14:35:23.494Z,3.00
2022-09-11T14:41:05.700Z,3.50
2022-09-11T14:46:20.013Z,3.50
2022-09-11T14:51:45.407Z,3.30
2022-09-11T14:56:56.488Z,3.30
2022-09-11T15:02:00.360Z,2.90
2022-09-11T15:07:06.793Z,3.10
2022-09-11T15:12:14.967Z,3.00
2022-09-11T15:17:48.656Z,3.40
2022-09-11T15:22:57.085Z,3.20
2022-09-11T15:28:00.602Z,3.10
2022-09-11T15:33:07.811Z,2.70
2022-09-11T15:38:21.376Z,2.60
2022-09-11T15:43:44.418Z,2.90
2022-09-11T15:49:09.868Z,3.20
2022-09-11T15:54:31.547Z,3.10
2022-09-11T16:00:12.413Z,2.80
2022-09-11T16:05:18.643Z,3.50
2022-09-11T16:10:33.608Z,3.30
2022-09-11T16:15:42.652Z,3.40
2022-09-11T16:20:56.210Z,21.40
2022-09-11T16:26:25.621Z,8.80
2022-09-11T16:31:29.112Z,9.40
2022-09-11T16:36:41.087Z,8.50
2022-09-11T16:41:45.007Z,6.60
2022-09-11T16:47:03.030Z,6.60
2022-09-11T16:52:07.479Z,6.30
2022-09-11T16:57:11.309Z,5.90
2022-09-11T17:02:14.988Z,6.00
2022-09-11T17:07:20.954Z,6.60
2022-09-11T17:12:28.828Z,8.20
2022-09-11T17:17:40.837Z,7.20
2022-09-11T17:22:57.831Z,7.20
2022-09-11T17:28:08.407Z,17.50
2022-09-11T17:33:15.922Z,12.90
2022-09-11T17:38:20.102Z,12.00
2022-09-11T17:43:24.648Z,10.80
2022-09-11T17:48:29.603Z,10.30
2022-09-11T17:53:38.478Z,10.00
2022-09-11T17:58:44.463Z,9.40
2022-09-11T18:03:53.258Z,9.20
2022-09-11T18:09:05.068Z,9.00
2022-09-11T18:14:09.922Z,8.40
2022-09-11T18:19:21.564Z,8.30
2022-09-11T18:24:31.662Z,7.80
2022-09-11T18:29:42.646Z,8.00
2022-09-11T18:35:05.045Z,7.00
2022-09-11T18:40:09.221Z,7.30
2022-09-11T18:45:17.416Z,6.00
2022-09-11T18:50:22.353Z,6.80
2022-09-11T18:55:29.750Z,6.20
2022-09-11T19:00:34.758Z,5.90
2022-09-11T19:05:48.165Z,5.80
2022-09-11T19:10:51.916Z,6.00
2022-09-11T19:15:57.208Z,5.70
2022-09-11T19:21:05.993Z,5.10
2022-09-11T19:26:25.889Z,5.60
2022-09-11T19:31:31.007Z,5.10
2022-09-11T19:36:36.622Z,5.50
2022-09-11T19:41:40.852Z,5.40
2022-09-11T19:46:48.804Z,5.00
2022-09-11T19:51:54.960Z,4.80
2022-09-11T19:57:01.136Z,4.90
2022-09-11T20:02:12.679Z,4.90
2022-09-11T20:07:20.459Z,5.30
2022-09-11T20:12:31.267Z,5.10
2022-09-11T20:22:42.264Z,4.90
2022-09-11T20:27:49.503Z,4.90
2022-09-11T20:32:53.819Z,5.00
2022-09-11T20:37:57.341Z,4.60
2022-09-11T20:43:01.072Z,4.90
2022-09-11T20:48:05.099Z,5.10
2022-09-11T20:53:09.757Z,5.00
2022-09-11T20:58:13.490Z,5.40
2022-09-11T21:03:21.702Z,5.70
2022-09-11T21:08:28.194Z,5.60
2022-09-11T21:13:38.256Z,6.80
2022-09-11T21:18:49.380Z,5.80
2022-09-11T21:24:02.501Z,5.90
2022-09-11T21:29:08.864Z,6.00
2022-09-11T21:34:16.492Z,5.90
2022-09-11T21:39:27.799Z,5.80
2022-09-11T21:44:45.556Z,5.90
2022-09-11T21:49:49.566Z,6.00
2022-09-11T21:54:55.138Z,5.60
2022-09-11T21:59:59.373Z,5.90
2022-09-11T22:05:07.702Z,5.90
2022-09-11T22:10:12.042Z,6.40
2022-09-11T22:15:18.223Z,6.80
2022-09-11T22:20:31.536Z,6.40
2022-09-11T22:25:48.086Z,6.00
2022-09-11T22:30:51.714Z,6.00
2022-09-11T22:35:55.538Z,6.10
2022-09-11T22:40:59.261Z,6.10
2022-09-11T22:46:03.623Z,5.70
2022-09-11T22:51:07.120Z,5.80
2022-09-11T22:56:10.850Z,5.40
2022-09-11T23:01:21.604Z,5.50
2022-09-11T23:06:45.621Z,5.40
2022-09-11T23:11:49.347Z,5.50
2022-09-11T23:16:52.869Z,5.10
2022-09-11T23:21:56.494Z,4.90
2022-09-11T23:27:00.011Z,5.20
2022-09-11T23:32:03.944Z,4.90
2022-09-11T23:37:07.565Z,5.40
2022-09-11T23:42:10.965Z,4.70
2022-09-11T23:47:14.505Z,5.40
2022-09-11T23:52:18.140Z,4.90
2022-09-11T23:57:22.163Z,4.90
